• Join FlightAware (Why Join?)
  • Login
  • US Flag 
10:00AM EDT


 

Airport Tracker/Info


-or-


 

Live Flight TrackerFlight Track Log ✈ SKW6306 ✈ 26-Jun-2013 ✈ CYXE - KDEN

Flight Track Log - Related Links

Times and Time Zones

All times are in EDT time to prevent confusion due to time zone crossing. See the SKW6306 flight status page for this flight to view local times or setup timezone preferences in your user account.

Time Position Orientation Groundspeed Altitude Reporting Facility
EDT Latitude Longitude Course Direction KTS MPH feet Rate Location/Type
05:44PM 52.1667 -106.8167 270° West 170 196 3,900  Level Winnipeg Center
05:45PM 52.1500 -106.9167 255° West 200 230 6,400 2,280 Climbing Winnipeg Center
05:46PM 51.8315 -106.8829 199° South  Level FlightAware Approximate
05:46PM 52.1000 -106.9333 192° South 250 288 8,500  Level Winnipeg Center
05:47PM 51.7179 -106.9411 197° South  Level FlightAware Approximate
05:47PM 52.0167 -106.9667 194° South 270 311 10,800  Level Winnipeg Center
05:48PM 51.6048 -106.9952 212° Southwest  Level FlightAware Approximate
05:48PM 51.9500 -107.0000 197° South 280 322 13,100  Level Winnipeg Center
05:49PM 51.8500 -107.0500 197° South 290 334 15,200 1,920 Climbing Winnipeg Center
05:50PM 51.7833 -107.0833 197° South 290 334 17,000 1,680 Climbing Winnipeg Center
05:51PM 51.7000 -107.1167 194° South 310 357 18,600 1,200 Climbing Winnipeg Center
05:52PM 51.6167 -107.1500 194° South 330 380 19,400 660 Climbing Winnipeg Center
05:53PM 51.5000 -107.2000 195° South 360 414 20,000 660 Climbing Winnipeg Center
05:54PM 51.4167 -107.2500 201° Southwest 380 437 20,800 1,020 Climbing Winnipeg Center
05:55PM 51.3000 -107.3000 195° South 390 449 22,100 1,380 Climbing Winnipeg Center
05:56PM 51.2167 -107.3333 194° South 390 449 23,600 1,140 Climbing Winnipeg Center
05:57PM 51.1000 -107.3833 195° South 380 437 24,400 840 Climbing Winnipeg Center
05:58PM 51.0000 -107.4167 192° South 390 449 25,300 780 Climbing Winnipeg Center
05:59PM 50.9000 -107.4667 198° South 390 449 26,000 600 Climbing Winnipeg Center
06:00PM 50.7667 -107.5167 193° South 400 460 26,500 660 Climbing Winnipeg Center
06:01PM 50.6667 -107.5500 192° South 400 460 27,400 720 Climbing Winnipeg Center
06:02PM 50.5667 -107.6000 198° South 400 460 28,000 540 Climbing Winnipeg Center
06:03PM 50.4500 -107.6333 190° South 410 472 28,500 660 Climbing Winnipeg Center
06:04PM 50.3500 -107.6833 198° South 400 460 29,400 840 Climbing Winnipeg Center
06:05PM 50.2500 -107.7167 192° South 390 449 30,200 600 Climbing Winnipeg Center
06:06PM 50.1167 -107.7500 189° South 400 460 30,700 480 Climbing Winnipeg Center
06:07PM 50.0167 -107.7500 180° South 400 460 31,200 480 Climbing Winnipeg Center
06:08PM 49.9000 -107.7667 185° South 400 460 31,700 480 Climbing Winnipeg Center
06:09PM 49.8000 -107.7667 180° South 400 460 32,200 540 Climbing Winnipeg Center
06:10PM 49.6833 -107.8000 190° South 400 460 32,800 360 Climbing Winnipeg Center
06:11PM 49.5833 -107.8000 180° South 390 449 33,000 60 Climbing Winnipeg Center
06:12PM 49.4833 -107.8000 180° South 400 460 33,000  Level Winnipeg Center
06:13PM 49.3667 -107.8333 191° South 400 460 33,000  Level Winnipeg Center
06:14PM 49.2500 -107.8333 180° South 410 472 33,000  Level Winnipeg Center
06:15PM 49.1333 -107.8500 185° South 410 472 33,000  Level Winnipeg Center
06:16PM 49.0167 -107.8500 180° South 410 472 33,000  Level Winnipeg Center
06:17PM 48.9000 -107.8833 191° South 420 483 33,000  Level Winnipeg Center
06:18PM 48.8106 -107.8606 170° South 415 478 33,000  Level Salt Lake Center
06:19PM 48.6939 -107.8725 184° South 418 481 33,000  Level Salt Lake Center
06:20PM 48.5789 -107.8858 184° South 417 480 33,000  Level Salt Lake Center
06:21PM 48.4631 -107.8981 184° South 417 480 33,000  Level Salt Lake Center
06:22PM 48.3469 -107.9086 183° South 418 481 33,000  Level Salt Lake Center
06:23PM 48.2275 -107.8778 170° South 430 495 33,000  Level Salt Lake Center
06:24PM 48.1075 -107.8458 170° South 436 502 33,000  Level Salt Lake Center
06:25PM 47.9614 -107.8061 170° South 442 509 33,000  Level Salt Lake Center
06:26PM 47.8392 -107.7739 170° South 443 510 33,000  Level Salt Lake Center
06:27PM 47.7181 -107.7408 170° South 444 511 33,000  Level Salt Lake Center
06:28PM 47.5964 -107.7086 170° South 444 511 33,000  Level Salt Lake Center
06:29PM 47.4753 -107.6750 169° South 444 511 33,000  Level Salt Lake Center
06:30PM 47.3531 -107.6442 170° South 445 512 33,000  Level Salt Lake Center
06:31PM 47.2069 -107.6058 170° South 443 510 33,000  Level Salt Lake Center
06:32PM 47.0994 -107.5769 170° South 445 512 33,000  Level Salt Lake Center
06:33PM 46.9536 -107.5392 170° South 445 512 33,000  Level Salt Lake Center
06:34PM 46.8331 -107.5083 170° South 444 511 33,000  Level Salt Lake Center
06:35PM 46.7125 -107.4769 170° South 442 509 33,000  Level Salt Lake Center
06:36PM 46.5906 -107.4453 170° South 444 511 33,000  Level Salt Lake Center
06:37PM 46.4656 -107.4131 170° South 448 516 33,000  Level Salt Lake Center
06:38PM 46.3281 -107.3781 170° South 445 512 33,000  Level Salt Lake Center
06:39PM 46.1975 -107.3447 170° South 445 512 33,000  Level Salt Lake Center
06:40PM 46.0769 -107.3144 170° South 446 513 33,000  Level Salt Lake Center
06:41PM 45.9461 -107.2808 170° South 444 511 33,000  Level Salt Lake Center
06:43PM 45.8264 -107.2522 171° South 442 509 33,000  Level Salt Lake Center
06:44PM 45.6964 -107.2194 170° South 443 510 33,000  Level Salt Lake Center
06:45PM 45.5767 -107.1906 170° South 440 506 33,000  Level Salt Lake Center
06:46PM 45.4519 -107.1592 170° South 438 504 33,000  Level Salt Lake Center
06:47PM 45.3333 -107.1353 172° South 436 502 33,000  Level Salt Lake Center
06:48PM 45.2083 -107.1017 169° South 438 504 33,000  Level Salt Lake Center
06:49PM 45.0922 -107.0742 171° South 441 507 33,000  Level Salt Lake Center
06:50PM 44.9572 -107.0417 170° South 442 509 33,000  Level Salt Lake Center
06:51PM 44.8403 -107.0147 171° South 443 510 33,000 -300 Level Salt Lake Center
06:52PM 44.7056 -106.9808 170° South 442 509 32,500 -540 Descending Salt Lake Center
06:53PM 44.5842 -106.9511 170° South 456 525 32,000 -300 Descending Salt Lake Center
06:54PM 44.4419 -106.9183 171° South 462 532 32,000  Level Salt Lake Center
06:55PM 44.3244 -106.8908 170° South 452 520 32,000  Level Salt Lake Center
06:56PM 44.1919 -106.8594 170° South 437 503 32,000  Level Salt Lake Center
06:57PM 44.0794 -106.8333 171° South 430 495 32,000  Level Salt Lake Center
06:58PM 43.9669 -106.8078 171° South 428 493 32,000  Level Salt Lake Center
06:59PM 43.8344 -106.7758 170° South 433 498 32,000  Level Salt Lake Center
07:00PM 43.7192 -106.7500 171° South 436 502 32,000  Level Salt Lake Center
07:01PM 43.5850 -106.7192 171° South 439 505 32,000  Level Salt Lake Center
07:02PM 43.4700 -106.6928 171° South 438 504 32,000  Level Salt Lake Center
07:03PM 43.3361 -106.6619 170° South 437 503 32,000  Level Salt Lake Center
07:04PM 43.2225 -106.6358 170° South 434 499 32,000  Level Salt Lake Center
07:05PM 43.0894 -106.6072 171° South 434 499 32,000  Level Salt Lake Center
07:06PM 42.9753 -106.5806 170° South 435 501 32,000  Level Salt Lake Center
07:08PM 42.8022 -106.5403 170° South 437 503 32,000  Level Denver Center
07:09PM 42.6864 -106.4864 161° South 462 532 32,000  Level Denver Center
07:10PM 42.5603 -106.4108 156° South 449 517 32,000  Level Denver Center
07:11PM 42.4519 -106.3467 156° South 446 513 32,000  Level Denver Center
07:12PM 42.3236 -106.2733 157° South 449 517 32,000  Level Denver Center
07:13PM 42.2142 -106.2097 157° South 449 517 32,000  Level Denver Center
07:14PM 42.0878 -106.1353 156° South 446 513 32,000  Level Denver Center
07:15PM 41.9775 -106.0722 157° South 450 518 32,000  Level Denver Center
07:16PM 41.8703 -106.0100 157° South 443 510 32,000  Level Denver Center
07:17PM 41.7464 -105.9394 157° South 436 502 32,000 -180 Level Denver Center
07:18PM 41.6419 -105.8808 157° South 430 495 31,700 -840 Descending Denver Center
07:19PM 41.5169 -105.8097 157° South 434 499 30,300 -1,260 Descending Denver Center
07:20PM 41.4139 -105.7508 157° South 426 490 29,200 -1,260 Descending Denver Center
07:21PM 41.2969 -105.6856 157° South 414 476 27,800 -1,080 Descending Denver Center
07:22PM 41.1961 -105.6283 157° South 412 474 27,000 -420 Descending Denver Center
07:23PM 41.0822 -105.5658 158° South 400 460 27,000  Level Denver Center
07:24PM 40.9772 -105.5092 158° South 404 465 27,000 -300 Level Denver Center
07:25PM 40.8697 -105.4469 156° South 419 482 26,400 -1,560 Descending Denver Center
07:26PM 40.7647 -105.3889 157° South 412 474 23,800 -2,460 Descending Denver Center
07:27PM 40.6753 -105.2972 142° Southeast 408 470 21,400 -2,400 Descending Denver Center
07:28PM 40.5794 -105.1839 138° Southeast 385 443 18,900 -2,220 Descending Denver Center
07:29PM 40.5072 -105.1028 139° Southeast 357 411 16,900 -1,920 Descending Denver Center
07:30PM 40.4331 -105.0164 138° Southeast 331 381 14,900 -1,920 Descending Denver Center
07:31PM 40.3775 -104.9247 128° Southeast 322 371 13,000 -1,860 Descending Denver Center
07:32PM 40.3108 -104.8550 141° Southeast 304 350 11,200 -1,800 Descending Denver Center
07:33PM 40.2250 -104.8181 162° South 298 343 9,300 -1,320 Descending Denver Center
07:34PM 40.1536 -104.7844 160° South 274 315 8,500 -780 Descending Denver Center
07:35PM 40.0856 -104.7497 159° South 247 284 7,800 -720 Descending Denver Center